Agatti Island, Agatti Airport (VOAT)

NameAgatti Airport
CityAgatti Island
CountryIndia
ICAOVOAT
IATAAGX
Altitude4 m
CoordinatesGoogle Map
Live Air TrafficLiveATC.net
METARVOAT 160600Z 32005KT 6000 FEW015 31/24 Q1010 NOSIG
2019-10-16 06:00:00 Wind: Northwest (320°) 2.57 m/s - Visibility: 6000 m - Temperature: 31 °C - Dew point: 24 °C - Humidity: 66.3% - Pressure: 1010 hPa
Statistics

The table below shows the detailed information of all flights to/from Agatti Island, Agatti Airport (VOAT).

Ident Aircraft Coming fromFrom Going toTo Owner nameOwnerDate
VT-RKF - AT76 - Air India Regional LLR505 ATR ATR-72-600 AT76 , India (VOCI) VOCI
364 km
Agatti Island, India (VOAT) VOAT
645 km
Alliance Air Alliance Air Sun, 06 Oct 2019 01:36:59 +0000 6/10/2019 1:36 am
VT-RKF - AT76 - Air India Regional LLR505 ATR ATR-72-600 AT76 , India (VOCI) VOCI
187 km
Agatti Island, India (VOAT) VOAT
558 km
Alliance Air Alliance Air Sun, 29 Sep 2019 01:48:59 +0000 29/9/2019 1:48 am
NA - NA - Air India Regional LLR505 Not Available Not Available NA , India (VOCI) VOCI
353 km
Agatti Island, India (VOAT) VOAT
646 km
- - Sun, 08 Sep 2019 01:37:30 +0000 8/9/2019 1:37 am
NA - NA - Air India Regional LLR505 Not Available Not Available NA , India (VOCI) VOCI
366 km
Agatti Island, India (VOAT) VOAT
648 km
- - Thu, 05 Sep 2019 01:36:09 +0000 5/9/2019 1:36 am